Time;durP1;ratioP1;P1;durP2;ratioP2;P2;SDS_P1;SDS_P2;PMS_P1;PMS_P2;Temp;Humidity;BMP_temperature;BMP_pressure;BME280_temperature;BME280_humidity;BME280_pressure;Samples;Min_cycle;Max_cycle;Signal;HPM_P1;HPM_P2
2023/01/26 00:02:17;;;;;;;5.70;5.20;;;;;;;-2.51;100.00;102039.97;6037532;23;20080;-75
2023/01/26 00:04:43;;;;;;;4.30;3.75;;;;;;;-2.70;100.00;101993.31;6024966;23;20089;-75
2023/01/26 00:07:10;;;;;;;4.22;3.95;;;;;;;-2.59;100.00;102028.66;6030954;23;20038;-74
2023/01/26 00:09:36;;;;;;;5.65;5.25;;;;;;;-2.37;100.00;102068.59;6023706;23;20019;-76
2023/01/26 00:12:03;;;;;;;4.78;3.80;;;;;;;-2.23;100.00;102078.34;6051392;23;20497;-75
2023/01/26 00:14:48;;;;;;;3.40;3.30;;;;;;;-2.17;100.00;102108.47;6026770;23;20367;-75
2023/01/26 00:17:24;;;;;;;12.10;5.35;;;;;;;-2.31;100.00;102036.16;6051660;23;20026;-74
2023/01/26 00:19:56;;;;;;;5.82;5.43;;;;;;;-2.46;100.00;102020.41;6052724;23;20086;-76
2023/01/26 00:22:25;;;;;;;5.40;5.00;;;;;;;-2.74;100.00;101959.81;6031652;23;20018;-74
2023/01/26 00:24:51;;;;;;;5.18;4.85;;;;;;;-2.22;100.00;102045.81;6023397;23;20074;-74
2023/01/26 00:27:18;;;;;;;4.32;3.58;;;;;;;-3.68;100.00;101807.00;6056553;23;20102;-74
2023/01/26 00:29:44;;;;;;;7.53;5.00;;;;;;;-3.01;100.00;101922.34;6060669;23;20021;-75
2023/01/26 00:32:11;;;;;;;4.88;4.55;;;;;;;-2.25;100.00;102056.00;6008206;23;20010;-75
2023/01/26 00:34:37;;;;;;;4.55;4.25;;;;;;;-2.52;100.00;102000.56;6049609;23;20027;-76
2023/01/26 00:37:03;;;;;;;3.08;2.97;;;;;;;-2.41;100.00;102011.97;6053697;23;20033;-74
2023/01/26 00:39:30;;;;;;;7.85;5.20;;;;;;;-2.76;100.00;101940.94;6051985;23;20026;-75
2023/01/26 00:42:05;;;;;;;10.50;5.15;;;;;;;-2.21;100.00;102034.66;6056910;23;20022;-76
2023/01/26 00:44:32;;;;;;;4.35;4.05;;;;;;;-2.52;100.00;101987.72;6048257;23;20010;-74
2023/01/26 00:46:58;;;;;;;5.00;4.22;;;;;;;-2.82;100.00;101929.66;6055374;23;20084;-74
2023/01/26 00:49:24;;;;;;;4.15;3.95;;;;;;;-3.79;100.00;101751.16;6050564;23;20044;-76
2023/01/26 00:51:51;;;;;;;8.70;7.00;;;;;;;-2.75;100.00;101922.09;6055403;23;20038;-77
2023/01/26 00:54:17;;;;;;;4.32;4.13;;;;;;;-2.42;100.00;101969.09;6033513;23;20505;-77
2023/01/26 00:56:43;;;;;;;6.63;4.78;;;;;;;-2.38;100.00;101987.16;6051842;23;20611;-75
2023/01/26 00:59:10;;;;;;;4.97;3.78;;;;;;;-3.44;100.00;101796.44;6056439;23;20022;-76
2023/01/26 01:01:36;;;;;;;6.50;5.88;;;;;;;-2.38;100.00;101984.59;6058163;23;20680;-76
2023/01/26 01:04:03;;;;;;;4.20;3.67;;;;;;;-2.10;100.00;102022.06;6029121;23;20090;-76
2023/01/26 01:06:29;;;;;;;3.80;3.45;;;;;;;-2.92;100.00;101896.03;6050681;23;20766;-75
2023/01/26 01:08:56;;;;;;;4.43;4.07;;;;;;;-2.06;100.00;102011.84;6055137;23;20034;-75
2023/01/26 01:11:23;;;;;;;20.77;4.70;;;;;;;-2.28;100.00;101960.81;6043190;23;20088;-74
2023/01/26 01:13:49;;;;;;;5.55;5.18;;;;;;;-2.68;100.00;101870.88;6052578;23;20014;-77
2023/01/26 01:16:16;;;;;;;7.82;7.13;;;;;;;-1.97;100.00;102000.88;6052471;23;20476;-75
2023/01/26 01:18:43;;;;;;;5.47;4.97;;;;;;;-1.96;100.00;102000.06;6034659;23;20053;-74
2023/01/26 01:21:12;;;;;;;2.97;2.88;;;;;;;-2.06;100.00;101967.28;6013188;23;20038;-74
2023/01/26 01:23:40;;;;;;;7.47;5.40;;;;;;;-1.88;100.00;101984.78;6055275;23;20019;-75
2023/01/26 01:26:07;;;;;;;4.93;4.32;;;;;;;-3.64;100.00;101716.44;6056045;23;20088;-76
2023/01/26 01:28:35;;;;;;;4.05;3.85;;;;;;;-1.85;100.00;101985.69;6024842;23;20037;-73
2023/01/26 01:31:06;;;;;;;4.85;4.45;;;;;;;-1.84;100.00;101986.56;6056813;23;20047;-74
2023/01/26 01:33:32;;;;;;;4.45;4.15;;;;;;;-2.58;100.00;101859.09;6054693;23;20014;-76
2023/01/26 01:36:01;;;;;;;4.82;4.53;;;;;;;-2.17;100.00;101935.31;6027227;23;20034;-75
2023/01/26 01:38:28;;;;;;;6.25;5.45;;;;;;;-2.20;100.00;101915.56;6061064;23;20653;-75
2023/01/26 01:40:55;;;;;;;7.72;5.32;;;;;;;-2.62;100.00;101855.59;6054112;23;20429;-74
2023/01/26 01:43:22;;;;;;;5.20;4.80;;;;;;;-1.86;100.00;101965.09;6025493;23;20061;-75
2023/01/26 01:45:50;;;;;;;4.35;4.07;;;;;;;-2.02;100.00;101944.19;6052981;23;20030;-75
2023/01/26 01:48:23;;;;;;;6.70;6.22;;;;;;;-1.75;100.00;101978.16;6050504;23;20110;-75
2023/01/26 01:50:57;;;;;;;5.72;5.30;;;;;;;-1.81;100.00;101979.75;6051773;23;20098;-76
2023/01/26 01:53:30;;;;;;;4.35;4.15;;;;;;;-2.27;100.00;101904.25;6051576;23;20018;-76
2023/01/26 01:56:04;;;;;;;5.22;3.35;;;;;;;-1.73;100.00;101981.63;6063406;23;20274;-75
2023/01/26 01:58:35;;;;;;;3.55;3.35;;;;;;;-2.73;100.00;101802.25;6053990;23;20030;-75
2023/01/26 02:01:01;;;;;;;5.45;5.05;;;;;;;-1.81;100.00;101966.03;6057300;23;20097;-74
2023/01/26 02:03:29;;;;;;;4.22;3.92;;;;;;;-2.25;100.00;101902.59;6053465;23;20014;-74
2023/01/26 02:05:59;;;;;;;4.65;4.35;;;;;;;-1.79;100.00;101982.38;6030702;23;20036;-74
2023/01/26 02:08:31;;;;;;;5.40;5.00;;;;;;;-2.21;100.00;101921.53;6023757;23;20020;-72
2023/01/26 02:11:02;;;;;;;3.75;3.40;;;;;;;-2.41;100.00;101890.25;6055247;23;20022;-74
2023/01/26 02:13:33;;;;;;;4.57;4.27;;;;;;;-2.51;100.00;101863.50;6051652;23;20095;-74
2023/01/26 02:15:59;;;;;;;5.82;5.43;;;;;;;-2.26;100.00;101900.00;6029591;23;20350;-73
2023/01/26 02:18:27;;;;;;;10.18;4.68;;;;;;;-1.98;100.00;101950.28;6053175;23;20696;-75
2023/01/26 02:21:01;;;;;;;4.32;4.05;;;;;;;-2.12;100.00;101893.44;6055504;23;20053;-75
2023/01/26 02:23:49;;;;;;;4.43;3.97;;;;;;;-2.25;100.00;101858.00;6048411;23;20038;-76
2023/01/26 02:26:19;;;;;;;4.10;3.90;;;;;;;-2.72;100.00;101778.28;6058835;23;20022;-75
2023/01/26 02:28:46;;;;;;;4.63;4.30;;;;;;;-1.62;100.00;101968.13;6051942;23;20013;-74
2023/01/26 02:31:13;;;;;;;6.47;5.80;;;;;;;-1.70;100.00;101938.81;6050139;23;20018;-75
2023/01/26 02:33:41;;;;;;;6.53;6.03;;;;;;;-1.97;100.00;101903.13;6051956;23;20051;-76
2023/01/26 02:36:17;;;;;;;4.57;4.30;;;;;;;-2.42;100.00;101832.00;6012868;23;20026;-75
2023/01/26 02:39:07;;;;;;;6.45;5.20;;;;;;;-2.36;100.00;101859.53;6051388;23;20030;-75
2023/01/26 02:44:19;;;;;;;8.70;4.45;;;;;;;-1.83;100.00;101952.28;6052412;23;20705;-75
2023/01/26 02:46:45;;;;;;;4.95;4.65;;;;;;;-1.90;100.00;101930.72;6028643;23;20023;-74
2023/01/26 02:51:57;;;;;;;6.13;5.70;;;;;;;-1.77;100.00;101960.09;6049663;23;20224;-73
2023/01/26 02:57:09;;;;;;;6.30;5.72;;;;;;;-2.10;100.00;101899.47;6044188;23;20088;-75
2023/01/26 02:59:35;;;;;;;4.28;3.97;;;;;;;-2.65;100.00;101829.81;6052096;23;20026;-74
2023/01/26 03:02:01;;;;;;;7.32;6.03;;;;;;;-2.43;100.00;101849.09;6053203;23;20081;-75
2023/01/26 03:04:28;;;;;;;6.72;4.53;;;;;;;-2.09;100.00;101903.75;6056483;23;20041;-74
2023/01/26 03:06:55;;;;;;;6.93;4.70;;;;;;;-2.12;100.00;101902.84;6052119;23;20030;-74
2023/01/26 03:09:21;;;;;;;4.80;4.55;;;;;;;-2.75;100.00;101798.78;6052546;23;20353;-76
2023/01/26 03:11:48;;;;;;;11.55;5.35;;;;;;;-1.78;100.00;101947.19;6044058;23;20023;-74
2023/01/26 03:14:14;;;;;;;3.75;3.55;;;;;;;-2.49;100.00;101850.69;6052056;23;20093;-72
2023/01/26 03:16:41;;;;;;;4.00;3.80;;;;;;;-2.27;100.00;101860.53;6027538;23;20054;-74
2023/01/26 03:27:33;;;;;;;4.40;4.10;;;;;;;-1.66;100.00;101911.44;6035788;23;20075;-75
2023/01/26 03:29:59;;;;;;;7.93;5.38;;;;;;;-2.49;100.00;101797.56;6052131;23;20022;-74
2023/01/26 03:32:25;;;;;;;4.40;4.10;;;;;;;-1.63;100.00;101920.03;6053361;23;20022;-74
2023/01/26 03:34:52;;;;;;;5.38;4.90;;;;;;;-2.92;100.00;101688.00;6051605;23;20038;-75
2023/01/26 03:37:21;;;;;;;6.88;5.70;;;;;;;-2.17;100.00;101833.31;6046724;23;20026;-76
2023/01/26 03:56:34;;;;;;;5.78;5.20;;;;;;;-2.62;100.00;101785.34;6058159;23;20042;-75
2023/01/26 03:59:08;;;;;;;3.85;3.42;;;;;;;-1.83;100.00;101893.09;6058242;23;20014;-75
2023/01/26 04:01:37;;;;;;;3.75;3.55;;;;;;;-1.80;100.00;101893.16;6059440;23;20024;-76
2023/01/26 04:09:38;;;;;;;3.90;3.70;;;;;;;-1.68;100.00;101888.22;6052864;23;20476;-75
2023/01/26 04:12:05;;;;;;;4.28;4.07;;;;;;;-2.06;100.00;101844.66;6035284;23;20141;-76
2023/01/26 04:22:51;;;;;;;4.72;4.30;;;;;;;-2.09;100.00;101859.16;6047416;23;20011;-74
2023/01/26 04:25:19;;;;;;;4.00;3.70;;;;;;;-1.82;100.00;101890.56;6056509;23;20560;-74
2023/01/26 04:27:46;;;;;;;7.65;4.20;;;;;;;-2.26;100.00;101833.16;6030308;23;20454;-75
2023/01/26 04:30:14;;;;;;;6.57;3.55;;;;;;;-2.69;100.00;101762.91;6056656;23;20390;-76
2023/01/26 04:32:41;;;;;;;4.03;3.22;;;;;;;-1.93;100.00;101907.47;6032699;23;20454;-74
2023/01/26 04:35:08;;;;;;;5.45;4.70;;;;;;;-2.71;100.00;101805.69;6050023;23;20069;-76
2023/01/26 04:37:35;;;;;;;3.35;3.25;;;;;;;-1.90;100.00;101891.25;6058764;23;20022;-75
2023/01/26 04:40:03;;;;;;;4.25;3.67;;;;;;;-1.84;100.00;101887.09;6034029;23;20089;-73
2023/01/26 04:42:29;;;;;;;4.68;4.28;;;;;;;-2.36;100.00;101796.13;6024890;23;20022;-75
2023/01/26 04:44:56;;;;;;;4.07;3.83;;;;;;;-2.28;100.00;101837.41;6057951;23;20752;-75
2023/01/26 04:47:22;;;;;;;3.75;3.55;;;;;;;-2.01;100.00;101880.75;6052877;23;20033;-77
2023/01/26 04:49:48;;;;;;;3.97;3.78;;;;;;;-2.25;100.00;101863.16;6050569;23;20543;-75
2023/01/26 04:52:15;;;;;;;3.08;2.97;;;;;;;-1.99;100.00;101876.50;6034658;23;20022;-74
2023/01/26 04:54:42;;;;;;;3.65;3.45;;;;;;;-2.57;100.00;101796.56;6022715;23;20150;-75
2023/01/26 04:57:10;;;;;;;4.93;4.63;;;;;;;-2.12;100.00;101854.00;6058971;23;20092;-76
2023/01/26 04:59:37;;;;;;;11.77;5.07;;;;;;;-2.13;100.00;101852.25;6028098;23;20350;-75
2023/01/26 05:02:03;;;;;;;3.60;3.40;;;;;;;-2.58;100.00;101782.00;6059237;23;20476;-75
2023/01/26 05:04:30;;;;;;;7.85;3.67;;;;;;;-2.83;100.00;101719.88;6005202;23;20025;-76
2023/01/26 05:06:57;;;;;;;3.53;3.40;;;;;;;-2.36;100.00;101795.25;6055896;23;20030;-75
2023/01/26 05:09:23;;;;;;;4.07;3.78;;;;;;;-3.73;100.00;101557.22;6058367;23;20014;-73
2023/01/26 05:11:49;;;;;;;3.53;3.33;;;;;;;-1.95;100.00;101859.44;6035544;23;20113;-76
2023/01/26 05:14:16;;;;;;;6.68;3.17;;;;;;;-2.50;100.00;101769.28;6030664;23;20467;-77
2023/01/26 05:16:42;;;;;;;2.88;2.78;;;;;;;-3.42;100.00;101609.16;6054546;23;20034;-73
2023/01/26 05:19:09;;;;;;;4.60;4.32;;;;;;;-2.08;100.00;101841.19;6051567;23;20026;-76
2023/01/26 05:21:35;;;;;;;7.05;3.53;;;;;;;-2.42;100.00;101790.88;6053826;23;20022;-76
2023/01/26 05:24:01;;;;;;;3.67;3.47;;;;;;;-2.06;100.00;101831.81;6035446;23;20007;-75
2023/01/26 05:26:28;;;;;;;3.83;3.63;;;;;;;-2.33;100.00;101778.16;6055420;23;20026;-74
2023/01/26 05:28:54;;;;;;;5.97;4.97;;;;;;;-1.93;100.00;101860.31;6059558;23;20034;-75
2023/01/26 05:31:21;;;;;;;14.77;3.70;;;;;;;-1.74;100.00;101880.41;6054064;23;20034;-75
2023/01/26 05:33:47;;;;;;;4.07;3.70;;;;;;;-1.69;100.00;101883.03;6055724;23;20080;-76
2023/01/26 05:36:14;;;;;;;9.60;5.68;;;;;;;-1.73;100.00;101886.41;6052551;23;20057;-74
2023/01/26 05:38:40;;;;;;;2.63;2.53;;;;;;;-2.70;100.00;101708.09;6054851;23;20028;-75
2023/01/26 05:41:07;;;;;;;6.18;5.35;;;;;;;-2.43;100.00;101777.13;6055446;23;20034;-75
2023/01/26 05:43:33;;;;;;;4.32;4.03;;;;;;;-3.04;100.00;101650.97;6049379;23;20031;-74
2023/01/26 05:46:00;;;;;;;4.05;3.72;;;;;;;-2.98;100.00;101668.19;6054851;23;20024;-74
2023/01/26 05:48:26;;;;;;;3.15;3.00;;;;;;;-2.21;100.00;101834.09;6049768;23;20095;-73
2023/01/26 05:50:57;;;;;;;9.55;4.47;;;;;;;-2.34;100.00;101819.28;6048541;23;20066;-74
2023/01/26 05:53:24;;;;;;;3.60;3.20;;;;;;;-2.76;100.00;101741.41;6057343;23;20034;-75
2023/01/26 05:55:50;;;;;;;6.68;5.47;;;;;;;-1.84;100.00;101902.53;6047544;23;20250;-75
2023/01/26 05:58:16;;;;;;;4.65;4.35;;;;;;;-2.59;100.00;101790.53;6058797;23;20019;-75
2023/01/26 06:00:43;;;;;;;4.70;4.40;;;;;;;-2.06;100.00;101869.53;6055871;23;20606;-74
2023/01/26 06:03:09;;;;;;;4.40;4.00;;;;;;;-2.61;100.00;101777.66;6031839;23;20507;-75
2023/01/26 06:05:37;;;;;;;5.47;4.97;;;;;;;-2.25;100.00;101846.03;6054431;23;20010;-73
2023/01/26 06:08:04;;;;;;;3.80;3.50;;;;;;;-2.32;100.00;101835.63;6026007;23;20028;-75
2023/01/26 06:10:30;;;;;;;4.78;4.40;;;;;;;-2.11;100.00;101866.84;6025869;23;20515;-75
2023/01/26 06:12:58;;;;;;;3.15;3.05;;;;;;;-2.15;100.00;101859.91;6052209;23;20050;-74
2023/01/26 06:15:24;;;;;;;6.95;3.50;;;;;;;-2.66;100.00;101771.56;6049230;23;20850;-73
2023/01/26 06:17:50;;;;;;;3.85;3.63;;;;;;;-1.91;100.00;101902.38;6034595;23;20080;-75
2023/01/26 06:20:17;;;;;;;4.35;4.05;;;;;;;-2.36;100.00;101833.81;6050880;23;20664;-76
2023/01/26 06:22:43;;;;;;;3.97;3.67;;;;;;;-1.92;100.00;101916.09;6056428;23;20033;-76
2023/01/26 06:25:09;;;;;;;4.75;4.38;;;;;;;-2.60;100.00;101799.09;6051483;23;20181;-77
2023/01/26 06:27:40;;;;;;;4.88;3.60;;;;;;;-1.88;100.00;101911.03;6057043;23;20026;-73
2023/01/26 06:30:08;;;;;;;2.50;2.40;;;;;;;-1.84;100.00;101920.53;6054164;23;20022;-76
2023/01/26 06:32:36;;;;;;;15.10;5.50;;;;;;;-2.85;100.00;101736.06;6033176;23;20390;-75
2023/01/26 06:35:05;;;;;;;5.25;4.75;;;;;;;-1.77;100.00;101912.94;6053475;23;20025;-75
2023/01/26 06:37:32;;;;;;;8.52;4.07;;;;;;;-1.81;100.00;101917.13;6053381;23;20080;-74
2023/01/26 06:39:58;;;;;;;3.88;3.35;;;;;;;-3.77;100.00;101591.31;6055038;23;20018;-75
2023/01/26 06:42:25;;;;;;;3.35;3.05;;;;;;;-2.08;100.00;101871.22;6050873;23;20046;-75
2023/01/26 06:44:51;;;;;;;3.65;3.47;;;;;;;-2.36;100.00;101837.25;6030951;23;20033;-75
2023/01/26 06:47:17;;;;;;;3.50;3.30;;;;;;;-2.52;100.00;101817.22;6047861;23;20018;-75
2023/01/26 06:49:46;;;;;;;3.38;3.22;;;;;;;-2.36;100.00;101846.69;6050187;23;20022;-74
2023/01/26 06:52:26;;;;;;;4.60;4.22;;;;;;;-1.88;100.00;101911.03;6053713;23;20038;-76
2023/01/26 06:54:53;;;;;;;7.35;4.43;;;;;;;-2.36;100.00;101832.09;6055054;23;20039;-76
2023/01/26 06:57:19;;;;;;;3.10;2.90;;;;;;;-2.04;100.00;101884.16;6045386;23;20571;-77
2023/01/26 06:59:45;;;;;;;4.03;3.72;;;;;;;-2.75;100.00;101773.94;6053827;23;20421;-76
2023/01/26 07:02:20;;;;;;;4.70;4.35;;;;;;;-2.56;100.00;101800.88;6052353;23;20057;-74
2023/01/26 07:04:47;;;;;;;3.97;3.70;;;;;;;-1.77;100.00;101924.06;6030016;23;20599;-75
2023/01/26 07:07:14;;;;;;;6.70;6.20;;;;;;;-1.80;100.00;101926.63;6053984;23;20018;-74
2023/01/26 07:09:40;;;;;;;3.50;3.20;;;;;;;-2.44;100.00;101808.81;6053421;23;20404;-75
2023/01/26 07:12:07;;;;;;;4.18;3.85;;;;;;;-1.74;100.00;101925.88;6051653;23;20862;-74
2023/01/26 07:14:33;;;;;;;3.60;3.38;;;;;;;-2.34;100.00;101824.44;6054002;23;20038;-77
2023/01/26 07:17:00;;;;;;;5.03;4.72;;;;;;;-2.03;100.00;101909.00;6054276;23;20139;-73
2023/01/26 07:19:29;;;;;;;3.50;2.97;;;;;;;-2.03;100.00;101914.16;6053090;23;20105;-74
2023/01/26 07:21:55;;;;;;;4.53;4.22;;;;;;;-1.93;100.00;101909.19;6047309;23;20035;-75
2023/01/26 07:24:22;;;;;;;6.93;4.40;;;;;;;-2.26;100.00;101864.00;6028183;23;20022;-74
2023/01/26 07:26:48;;;;;;;4.53;3.85;;;;;;;-2.37;100.00;101837.22;6058917;23;20089;-76
2023/01/26 07:29:17;;;;;;;5.68;5.13;;;;;;;-1.78;100.00;101927.50;6057121;23;20022;-72
2023/01/26 07:31:43;;;;;;;6.13;5.43;;;;;;;-2.45;100.00;101804.50;6058092;23;20627;-72
2023/01/26 07:34:10;;;;;;;3.83;3.53;;;;;;;-1.76;100.00;101928.41;6032770;23;20172;-74
2023/01/26 07:36:37;;;;;;;4.00;3.72;;;;;;;-1.67;100.00;101925.97;6052049;23;20117;-73
2023/01/26 07:39:05;;;;;;;4.47;3.95;;;;;;;-1.62;100.00;101926.94;6059426;23;20014;-72
2023/01/26 07:41:34;;;;;;;3.60;3.20;;;;;;;-1.91;100.00;101874.09;6058078;23;20084;-73
2023/01/26 07:44:00;;;;;;;8.57;4.43;;;;;;;-1.59;100.00;101927.84;6052516;23;20014;-74
2023/01/26 07:46:27;;;;;;;3.97;3.65;;;;;;;-1.92;100.00;101890.38;6057433;23;20024;-72
2023/01/26 07:48:53;;;;;;;3.50;3.25;;;;;;;-1.75;100.00;101914.69;6052076;23;20516;-73
2023/01/26 07:51:20;;;;;;;5.72;5.32;;;;;;;-1.52;100.00;101932.25;6055757;23;20027;-72
2023/01/26 07:53:48;;;;;;;4.72;4.32;;;;;;;-1.44;100.00;101926.41;6056440;23;20035;-74
2023/01/26 07:56:17;;;;;;;3.67;3.47;;;;;;;-1.63;100.00;101878.84;6056590;23;20027;-74
2023/01/26 07:58:48;;;;;;;4.10;3.83;;;;;;;-1.97;100.00;101828.53;6059204;23;20043;-74
2023/01/26 08:01:14;;;;;;;2.53;2.42;;;;;;;-1.26;100.00;101932.69;6055617;23;20030;-73
2023/01/26 08:03:41;;;;;;;4.88;4.03;;;;;;;-1.21;100.00;101938.78;6056390;23;20047;-73
2023/01/26 08:06:08;;;;;;;4.72;4.45;;;;;;;-2.84;100.00;101699.28;6055577;23;20146;-71
2023/01/26 08:08:39;;;;;;;3.42;3.28;;;;;;;-1.51;100.00;101941.69;6047901;23;20402;-72
2023/01/26 08:11:06;;;;;;;3.67;3.47;;;;;;;-1.41;100.00;101939.31;6025875;23;20028;-72
2023/01/26 08:13:33;;;;;;;5.03;4.57;;;;;;;-1.58;100.00;101896.97;6051982;23;20015;-73
2023/01/26 08:16:10;;;;;;;4.65;4.35;;;;;;;-1.34;100.00;101944.56;6033594;23;20030;-73
2023/01/26 08:18:39;;;;;;;8.52;3.88;;;;;;;-1.46;100.00;101938.38;6056801;23;20026;-73
2023/01/26 08:21:06;;;;;;;4.95;4.47;;;;;;;-1.29;100.00;101941.22;6008112;23;20029;-73
2023/01/26 08:23:32;;;;;;;11.48;3.45;;;;;;;-1.80;100.00;101854.56;6051472;23;20581;-71
2023/01/26 08:26:03;;;;;;;4.47;4.20;;;;;;;-1.79;100.00;101853.72;6057571;23;20014;-72
2023/01/26 08:28:33;;;;;;;6.60;3.35;;;;;;;-1.25;100.00;101919.81;6060019;23;20050;-72
2023/01/26 08:31:14;;;;;;;5.07;4.63;;;;;;;-1.11;100.00;101937.22;6053657;23;20088;-72
2023/01/26 08:33:41;;;;;;;4.03;3.75;;;;;;;-1.12;100.00;101956.97;6056250;23;20106;-73
2023/01/26 08:36:11;;;;;;;8.63;4.63;;;;;;;-1.13;100.00;101952.66;6023382;23;20421;-72
2023/01/26 08:38:38;;;;;;;12.75;3.60;;;;;;;-1.56;100.00;101905.59;6054447;23;20098;-72
2023/01/26 08:41:04;;;;;;;4.63;4.22;;;;;;;-1.14;100.00;101957.75;6050604;23;20449;-71
2023/01/26 08:43:30;;;;;;;4.97;4.15;;;;;;;-1.10;100.00;101949.25;6025707;23;20023;-72
2023/01/26 08:45:58;;;;;;;4.15;3.85;;;;;;;-1.14;100.00;101955.19;6028144;23;20034;-71
2023/01/26 08:48:25;;;;;;;4.43;4.22;;;;;;;-0.98;100.00;101946.88;6053579;23;20085;-72
2023/01/26 08:50:55;;;;;;;3.72;3.53;;;;;;;-0.91;100.00;101946.13;6059017;23;20082;-73
2023/01/26 08:53:22;;;;;;;4.35;4.15;;;;;;;-1.27;100.00;101895.75;6055142;23;20029;-71
2023/01/26 08:55:49;;;;;;;9.40;5.85;;;;;;;-0.96;100.00;101936.59;6054888;23;20080;-74
2023/01/26 08:58:15;;;;;;;4.15;3.78;;;;;;;-0.88;100.00;101959.06;6058177;23;20038;-73
2023/01/26 09:00:42;;;;;;;4.00;3.67;;;;;;;-1.08;100.00;101903.78;6058367;23;20055;-72
2023/01/26 09:03:09;;;;;;;4.00;3.80;;;;;;;-0.75;100.00;101946.34;6048644;23;20028;-73
2023/01/26 09:05:37;;;;;;;5.05;4.65;;;;;;;-1.64;100.00;101833.38;6057134;23;20441;-72
2023/01/26 09:08:05;;;;;;;5.15;4.85;;;;;;;-1.05;100.00;101953.63;6053697;23;20034;-74
2023/01/26 09:10:32;;;;;;;4.60;4.10;;;;;;;-1.72;100.00;101814.38;6031875;23;20019;-72
2023/01/26 09:12:59;;;;;;;6.18;4.60;;;;;;;-0.98;100.00;101926.28;6055360;23;20054;-72
2023/01/26 09:15:27;;;;;;;5.05;4.45;;;;;;;-0.65;100.00;101959.38;6004130;23;20121;-73
2023/01/26 09:17:53;;;;;;;4.10;3.85;;;;;;;-0.75;100.00;101948.94;6057306;23;20044;-73
2023/01/26 09:20:19;;;;;;;5.78;5.32;;;;;;;-0.83;100.00;101951.41;6054921;23;20092;-73
2023/01/26 09:22:46;;;;;;;5.70;3.55;;;;;;;-1.48;100.00;101843.94;6055105;23;20770;-72
2023/01/26 09:25:13;;;;;;;8.30;5.82;;;;;;;-1.18;100.00;101887.31;6057833;23;20654;-71
2023/01/26 09:27:39;;;;;;;2.83;2.72;;;;;;;-0.66;100.00;101951.63;6055306;23;20014;-73
2023/01/26 09:30:07;;;;;;;3.33;3.22;;;;;;;-0.63;100.00;101954.25;6054665;23;20022;-72
2023/01/26 09:32:33;;;;;;;13.27;4.75;;;;;;;-0.87;100.00;101953.06;6028867;23;20101;-74
2023/01/26 09:35:00;;;;;;;6.30;4.13;;;;;;;-1.25;100.00;101894.06;6052057;23;20026;-71
2023/01/26 09:37:26;;;;;;;5.50;5.10;;;;;;;-0.91;100.00;101964.16;6025150;23;20453;-72
2023/01/26 09:39:53;;;;;;;4.78;4.30;;;;;;;-0.95;100.00;101959.81;6056150;23;20020;-74
2023/01/26 09:42:22;;;;;;;4.78;4.38;;;;;;;-0.77;100.00;101959.22;6056427;23;20019;-72
2023/01/26 09:45:04;;;;;;;3.25;3.15;;;;;;;-0.71;100.00;101954.16;6054259;23;20038;-71
2023/01/26 09:48:01;;;;;;;4.93;4.65;;;;;;;-0.82;100.00;101955.72;6033035;23;20022;-72
2023/01/26 09:50:33;;;;;;;4.05;3.70;;;;;;;-0.63;100.00;101951.69;6028989;23;20015;-73
2023/01/26 09:53:43;;;;;;;5.47;5.05;;;;;;;-0.52;100.00;101954.41;6054706;23;20023;-72
2023/01/26 09:56:16;;;;;;;3.92;3.47;;;;;;;-0.54;100.00;101945.78;5945919;24;20498;-72
2023/01/26 09:58:46;;;;;;;4.03;3.80;;;;;;;-0.39;100.00;101955.47;5939506;24;20040;-72
2023/01/26 10:01:28;;;;;;;6.03;4.65;;;;;;;-0.71;100.00;101891.44;6006183;23;20010;-73
2023/01/26 10:04:10;;;;;;;13.93;5.18;;;;;;;-0.66;100.00;101893.22;6050368;23;20018;-73
2023/01/26 10:06:37;;;;;;;4.20;3.90;;;;;;;-2.82;100.00;101543.47;6026999;23;20038;-73
2023/01/26 10:09:14;;;;;;;4.15;3.95;;;;;;;-0.49;100.00;101916.63;6025283;23;20015;-72
2023/01/26 10:11:57;;;;;;;4.38;4.07;;;;;;;-0.25;100.00;101936.72;6191838;22;20182;-73
2023/01/26 10:14:39;;;;;;;5.20;4.45;;;;;;;-0.89;100.00;101856.81;6156024;23;20030;-73
2023/01/26 10:17:14;;;;;;;6.93;5.07;;;;;;;-0.89;100.00;101851.66;6133868;23;20578;-71
2023/01/26 10:20:09;;;;;;;7.35;4.93;;;;;;;-0.47;100.00;101934.72;6128876;23;20224;-72
2023/01/26 10:22:51;;;;;;;5.72;5.28;;;;;;;-0.38;100.00;101926.22;6102689;23;20025;-71
2023/01/26 10:25:37;;;;;;;5.18;4.60;;;;;;;-0.40;100.00;101887.53;6129818;23;20502;-73
2023/01/26 10:28:15;;;;;;;7.45;4.45;;;;;;;-0.12;100.00;101960.97;6107527;23;20158;-73
2023/01/26 10:30:43;;;;;;;4.78;4.38;;;;;;;-0.65;100.00;101856.28;6109556;23;20047;-72
2023/01/26 10:33:25;;;;;;;20.20;4.38;;;;;;;-0.11;100.00;101925.72;6123936;23;20055;-71
2023/01/26 10:35:52;;;;;;;4.55;4.20;;;;;;;-0.44;100.00;101911.53;6131223;23;20028;-69
2023/01/26 10:38:31;;;;;;;3.45;3.30;;;;;;;-0.30;100.00;101935.81;6137613;23;20171;-71
2023/01/26 10:41:13;;;;;;;5.40;5.00;;;;;;;-0.24;100.00;101927.25;6135073;23;20377;-71
2023/01/26 10:43:41;;;;;;;3.55;3.35;;;;;;;-0.89;100.00;101849.09;6136161;23;20063;-74
2023/01/26 10:46:22;;;;;;;14.10;4.03;;;;;;;-0.69;100.00;101866.53;6130297;23;20025;-73
2023/01/26 10:49:13;;;;;;;5.60;4.82;;;;;;;-1.19;100.00;101763.66;6127614;23;20040;-73
2023/01/26 10:51:44;;;;;;;4.38;4.07;;;;;;;-0.13;100.00;101922.25;6131624;23;20029;-72
2023/01/26 10:54:23;;;;;;;7.93;7.15;;;;;;;-0.56;100.00;101878.75;6137024;23;20076;-73
2023/01/26 10:57:03;;;;;;;7.85;5.00;;;;;;;-0.15;100.00;101914.47;6135443;23;20130;-72
2023/01/26 10:59:46;;;;;;;4.75;4.45;;;;;;;-0.48;100.00;101879.72;6134038;23;20033;-73
2023/01/26 11:02:15;;;;;;;4.22;3.92;;;;;;;-0.09;100.00;101917.13;6132173;23;20069;-72
2023/01/26 11:05:00;;;;;;;8.18;6.50;;;;;;;-0.33;100.00;101915.13;6109179;23;20121;-72
2023/01/26 11:07:32;;;;;;;4.03;3.80;;;;;;;-0.42;100.00;101913.31;6139527;23;20021;-72
2023/01/26 11:10:27;;;;;;;5.13;4.78;;;;;;;-0.24;100.00;101909.19;6102887;23;20021;-73
2023/01/26 11:13:11;;;;;;;4.72;4.38;;;;;;;-0.29;100.00;101887.66;6128285;23;20404;-72
2023/01/26 11:15:40;;;;;;;4.97;4.45;;;;;;;-0.10;100.00;101901.63;6163479;23;20482;-73
2023/01/26 11:18:09;;;;;;;4.55;4.25;;;;;;;-0.08;100.00;101905.97;6135013;23;20029;-73
2023/01/26 11:20:54;;;;;;;32.67;6.25;;;;;;;-0.25;100.00;101903.19;6126179;23;20362;-72
2023/01/26 11:23:51;;;;;;;4.20;3.90;;;;;;;-0.48;100.00;101846.19;6083581;23;20018;-73
2023/01/26 11:26:30;;;;;;;3.70;3.42;;;;;;;-0.18;100.00;101901.56;6109707;23;20100;-72
2023/01/26 11:29:15;;;;;;;8.93;5.53;;;;;;;-0.27;100.00;101904.88;6109850;23;20500;-72
2023/01/26 11:32:12;;;;;;;7.75;3.65;;;;;;;-0.27;100.00;101899.72;6121093;23;20037;-73
2023/01/26 11:35:03;;;;;;;6.43;4.43;;;;;;;-0.59;100.00;101834.88;6102142;23;20029;-73
2023/01/26 11:37:40;;;;;;;11.45;4.88;;;;;;;-0.80;100.00;101825.16;6096513;23;20030;-70
2023/01/26 11:40:44;;;;;;;4.28;3.60;;;;;;;-0.32;100.00;101897.94;6104510;23;20034;-73
2023/01/26 11:43:25;;;;;;;5.07;4.45;;;;;;;-0.23;100.00;101896.31;6142446;23;20027;-74
2023/01/26 11:46:27;;;;;;;6.47;4.13;;;;;;;-0.18;100.00;101898.09;6114281;23;20578;-70
2023/01/26 11:49:13;;;;;;;4.18;3.72;;;;;;;-0.15;100.00;101892.97;6121354;23;20017;-73
2023/01/26 11:51:57;;;;;;;4.65;4.10;;;;;;;-0.10;100.00;101897.34;6143135;23;20033;-74
2023/01/26 11:55:21;;;;;;;3.95;3.63;;;;;;;-0.10;100.00;101899.03;6114823;23;20612;-74
2023/01/26 11:58:12;;;;;;;9.85;4.72;;;;;;;-0.11;100.00;101900.75;5873051;23;20640;-71
2023/01/26 12:00:56;;;;;;;3.78;3.47;;;;;;;-0.21;100.00;101892.06;6042809;23;20013;-71
2023/01/26 12:03:41;;;;;;;3.75;3.20;;;;;;;-0.21;100.00;101886.88;6124045;23;20113;-73
2023/01/26 12:06:16;;;;;;;4.70;4.35;;;;;;;-1.31;100.00;101693.13;6110251;23;20041;-73
2023/01/26 12:08:50;;;;;;;4.03;3.78;;;;;;;-0.48;100.00;101825.56;6113946;23;20093;-73
2023/01/26 12:11:34;;;;;;;4.25;3.95;;;;;;;-0.57;100.00;101797.06;6095212;23;20109;-74
2023/01/26 12:14:22;;;;;;;3.53;3.33;;;;;;;-0.05;100.00;101874.16;6103166;23;20573;-71
2023/01/26 12:17:18;;;;;;;3.63;3.42;;;;;;;-0.65;100.00;101758.31;6115718;23;20111;-71
2023/01/26 12:20:04;;;;;;;2.75;2.65;;;;;;;-0.05;100.00;101862.13;6112030;23;20512;-72
2023/01/26 12:22:37;;;;;;;4.10;3.80;;;;;;;-0.03;100.00;101849.25;6145301;23;20049;-71